Map

Track Data

SID SEASON NUMBER BASIN SUBBASIN NAME ISO_TIME NATURE LAT LON WMO_WIND WMO_PRES WMO_AGENCY TRACK_TYPE DIST2LAND LANDFALL IFLAG USA_AGENCY USA_ATCF_ID USA_LAT USA_LON USA_RECORD USA_STATUS USA_WIND USA_PRES USA_SSHS USA_R34_NE USA_R34_SE USA_R34_SW USA_R34_NW USA_R50_NE USA_R50_SE USA_R50_SW USA_R50_NW USA_R64_NE USA_R64_SE USA_R64_SW USA_R64_NW USA_POCI USA_ROCI USA_RMW USA_EYE TOKYO_LAT TOKYO_LON TOKYO_GRADE TOKYO_WIND TOKYO_PRES TOKYO_R50_DIR TOKYO_R50_LONG TOKYO_R50_SHORT TOKYO_R30_DIR TOKYO_R30_LONG TOKYO_R30_SHORT TOKYO_LAND CMA_LAT CMA_LON CMA_CAT CMA_WIND CMA_PRES HKO_LAT HKO_LON HKO_CAT HKO_WIND HKO_PRES NEWDELHI_LAT NEWDELHI_LON NEWDELHI_GRADE NEWDELHI_WIND NEWDELHI_PRES NEWDELHI_CI NEWDELHI_DP NEWDELHI_POCI REUNION_LAT REUNION_LON REUNION_TYPE REUNION_WIND REUNION_PRES REUNION_TNUM REUNION_CI REUNION_RMW REUNION_R34_NE REUNION_R34_SE REUNION_R34_SW REUNION_R34_NW REUNION_R50_NE REUNION_R50_SE REUNION_R50_SW REUNION_R50_NW REUNION_R64_NE REUNION_R64_SE REUNION_R64_SW REUNION_R64_NW BOM_LAT BOM_LON BOM_TYPE BOM_WIND BOM_PRES BOM_TNUM BOM_CI BOM_RMW BOM_R34_NE BOM_R34_SE BOM_R34_SW BOM_R34_NW BOM_R50_NE BOM_R50_SE BOM_R50_SW BOM_R50_NW BOM_R64_NE BOM_R64_SE BOM_R64_SW BOM_R64_NW BOM_ROCI BOM_POCI BOM_EYE BOM_POS_METHOD BOM_PRES_METHOD NADI_LAT NADI_LON NADI_CAT NADI_WIND NADI_PRES WELLINGTON_LAT WELLINGTON_LON WELLINGTON_WIND WELLINGTON_PRES DS824_LAT DS824_LON DS824_STAGE DS824_WIND DS824_PRES TD9636_LAT TD9636_LON TD9636_STAGE TD9636_WIND TD9636_PRES TD9635_LAT TD9635_LON TD9635_WIND TD9635_PRES TD9635_ROCI NEUMANN_LAT NEUMANN_LON NEUMANN_CLASS NEUMANN_WIND NEUMANN_PRES MLC_LAT MLC_LON MLC_CLASS MLC_WIND MLC_PRES USA_GUST BOM_GUST BOM_GUST_PER REUNION_GUST REUNION_GUST_PER USA_SEAHGT USA_SEARAD_NE USA_SEARAD_SE USA_SEARAD_SW USA_SEARAD_NW STORM_SPEED STORM_DIR
1923233N19119 1923 53 WP MM NOT_NAMED 1923-08-20 22:00:00 NR 18.6000 118.600 main 208 208 __________O___ -1 18.6000 118.600 2 8 297
1923233N19119 1923 53 WP MM NOT_NAMED 1923-08-21 00:00:00 NR 18.7168 118.356 main 231 241 __________P___ -1 18.7168 118.356 2 8 296
1923233N19119 1923 53 WP MM NOT_NAMED 1923-08-21 03:00:00 NR 18.8917 117.982 main 278 278 __________P___ -1 18.8917 117.982 2 8 296
1923233N19119 1923 53 WP MM NOT_NAMED 1923-08-21 06:00:00 NR 19.0665 117.585 main 325 325 __________P___ -1 19.0665 117.585 2 9 294
1923233N19119 1923 53 WP MM NOT_NAMED 1923-08-21 09:00:00 NR 19.2416 117.154 main 368 381 __________P___ -1 19.2416 117.154 2 9 293
1923233N19119 1923 53 WP MM NOT_NAMED 1923-08-21 10:00:00 NR 19.3000 117.000 main 391 380 __________O___ -1 19.3000 117.000 2 10 291
1923233N19119 1923 53 WP MM NOT_NAMED 1923-08-21 12:00:00 NR 19.4165 116.677 main 380 349 __________P___ -1 19.4165 116.677 2 10 290
1923233N19119 1923 53 WP MM NOT_NAMED 1923-08-21 15:00:00 NR 19.5851 116.173 main 349 323 __________P___ -1 19.5851 116.173 2 10 289
1923233N19119 1923 53 WP MM NOT_NAMED 1923-08-21 18:00:00 NR 19.7377 115.679 main 323 284 __________P___ -1 19.7377 115.679 2 9 288
1923233N19119 1923 53 WP MM NOT_NAMED 1923-08-21 21:00:00 NR 19.8648 115.232 main 284 280 __________P___ -1 19.8648 115.232 2 9 287
1923233N19119 1923 53 WP MM NOT_NAMED 1923-08-21 22:00:00 NR 19.9000 115.100 main 280 264 __________O___ -1 19.9000 115.100 2 7 286
1923233N19119 1923 53 WP MM NOT_NAMED 1923-08-22 00:00:00 NR 19.9583 114.876 main 264 259 __________P___ -1 19.9583 114.876 2 6 284
1923233N19119 1923 53 WP MM NOT_NAMED 1923-08-22 03:00:00 NR 20.0210 114.598 main 259 246 __________P___ -1 20.0210 114.598 2 5 282
1923233N19119 1923 53 WP MM NOT_NAMED 1923-08-22 06:00:00 NR 20.0623 114.368 main 246 236 __________P___ -1 20.0623 114.368 2 4 280
1923233N19119 1923 53 WP MM NOT_NAMED 1923-08-22 09:00:00 NR 20.0915 114.165 main 236 231 __________P___ -1 20.0915 114.165 2 4 278
1923233N19119 1923 53 WP MM NOT_NAMED 1923-08-22 10:00:00 NR 20.1000 114.100 main 231 226 __________O___ -1 20.1000 114.100 2 3 280
1923233N19119 1923 53 WP MM NOT_NAMED 1923-08-22 12:00:00 NR 20.1190 114.005 main 226 221 __________P___ -1 20.1190 114.005 2 3 281
1923233N19119 1923 53 WP MM NOT_NAMED 1923-08-22 15:00:00 NR 20.1412 113.876 main 221 203 __________P___ -1 20.1412 113.876 2 3 279
1923233N19119 1923 53 WP MM NOT_NAMED 1923-08-22 18:00:00 NR 20.1623 113.705 main 203 194 __________P___ -1 20.1623 113.705 2 4 276
1923233N19119 1923 53 WP MM NOT_NAMED 1923-08-22 21:00:00 NR 20.1888 113.428 main 194 192 __________P___ -1 20.1888 113.428 2 6 276
1923233N19119 1923 53 WP MM NOT_NAMED 1923-08-22 22:00:00 NR 20.2000 113.300 main 192 178 __________O___ -1 20.2000 113.300 2 9 276
1923233N19119 1923 53 WP MM NOT_NAMED 1923-08-23 00:00:00 NR 20.2367 112.943 main 178 152 __________P___ -1 20.2367 112.943 2 11 276
1923233N19119 1923 53 WP MM NOT_NAMED 1923-08-23 03:00:00 NR 20.2975 112.287 main 152 85 __________P___ -1 20.2975 112.287 2 13 275
1923233N19119 1923 53 WP MM NOT_NAMED 1923-08-23 06:00:00 NR 20.3537 111.556 main 92 33 __________P___ -1 20.3537 111.556 2 14 274
1923233N19119 1923 53 WP MM NOT_NAMED 1923-08-23 09:00:00 NR 20.3927 110.828 main 33 15 __________P___ -1 20.3927 110.828 2 13 273
1923233N19119 1923 53 WP MM NOT_NAMED 1923-08-23 10:00:00 NR 20.4000 110.600 main 15 0 __________O___ -1 20.4000 110.600 2 12 271
1923233N19119 1923 53 WP MM NOT_NAMED 1923-08-23 12:00:00 NR 20.4046 110.177 main 0 0 __________P___ -1 20.4046 110.177 2 11 269
1923233N19119 1923 53 WP MM NOT_NAMED 1923-08-23 15:00:00 NR 20.3906 109.614 main 23 23 __________P___ -1 20.3906 109.614 2 10 267
1923233N19119 1923 53 WP MM NOT_NAMED 1923-08-23 18:00:00 NR 20.3583 109.115 main 69 64 __________P___ -1 20.3583 109.115 2 9 265
1923233N19119 1923 53 WP MM NOT_NAMED 1923-08-23 21:00:00 NR 20.3154 108.651 main 83 91 __________P___ -1 20.3154 108.651 2 9 264
1923233N19119 1923 53 WP MM NOT_NAMED 1923-08-23 22:00:00 NR 20.3000 108.500 main 98 __________O___ -1 20.3000 108.500 7 9 264

Digital Typhoon Data and Search

About IBTrACS Database

This database is a web-friendly format of International Best Track Archive for Climate Stewardship (IBTrACS), a global best track data archive curated by NOAA dating back to 1842.

Updated: 2021-12-06